sensor_id;sensor_type;location;lat;lon;timestamp;P1;durP1;ratioP1;P2;durP2;ratioP2
78618;SDS011;67941;52.506;5.470;2023-11-22T00:01:36;0.60;;;0.28;;
78618;SDS011;67941;52.506;5.470;2023-11-22T00:04:05;0.85;;;0.30;;
78618;SDS011;67941;52.506;5.470;2023-11-22T00:06:34;0.55;;;0.20;;
78618;SDS011;67941;52.506;5.470;2023-11-22T00:09:03;1.73;;;0.55;;
78618;SDS011;67941;52.506;5.470;2023-11-22T00:11:35;1.65;;;0.52;;
78618;SDS011;67941;52.506;5.470;2023-11-22T00:14:04;4.15;;;1.02;;
78618;SDS011;67941;52.506;5.470;2023-11-22T00:16:33;1.05;;;0.30;;
78618;SDS011;67941;52.506;5.470;2023-11-22T00:19:21;1.50;;;0.63;;
78618;SDS011;67941;52.506;5.470;2023-11-22T00:21:50;1.55;;;0.38;;
78618;SDS011;67941;52.506;5.470;2023-11-22T00:24:19;1.05;;;0.30;;
78618;SDS011;67941;52.506;5.470;2023-11-22T00:26:50;0.55;;;0.20;;
78618;SDS011;67941;52.506;5.470;2023-11-22T00:29:19;1.25;;;0.38;;
78618;SDS011;67941;52.506;5.470;2023-11-22T00:31:48;0.85;;;0.30;;
78618;SDS011;67941;52.506;5.470;2023-11-22T00:34:17;0.40;;;0.13;;
78618;SDS011;67941;52.506;5.470;2023-11-22T00:36:46;1.30;;;0.20;;
78618;SDS011;67941;52.506;5.470;2023-11-22T00:39:16;0.90;;;0.43;;
78618;SDS011;67941;52.506;5.470;2023-11-22T00:41:45;1.55;;;0.60;;
78618;SDS011;67941;52.506;5.470;2023-11-22T00:44:17;0.30;;;0.10;;
78618;SDS011;67941;52.506;5.470;2023-11-22T00:46:46;0.10;;;0.10;;
78618;SDS011;67941;52.506;5.470;2023-11-22T00:49:15;0.73;;;0.22;;
78618;SDS011;67941;52.506;5.470;2023-11-22T00:51:44;0.73;;;0.20;;
78618;SDS011;67941;52.506;5.470;2023-11-22T00:54:13;0.40;;;0.10;;
78618;SDS011;67941;52.506;5.470;2023-11-22T00:56:42;0.30;;;0.20;;
78618;SDS011;67941;52.506;5.470;2023-11-22T00:59:11;0.47;;;0.25;;
78618;SDS011;67941;52.506;5.470;2023-11-22T01:01:42;0.40;;;0.22;;
78618;SDS011;67941;52.506;5.470;2023-11-22T01:04:11;0.50;;;0.20;;
78618;SDS011;67941;52.506;5.470;2023-11-22T01:06:40;0.60;;;0.20;;
78618;SDS011;67941;52.506;5.470;2023-11-22T01:09:09;0.40;;;0.20;;
78618;SDS011;67941;52.506;5.470;2023-11-22T01:11:39;0.40;;;0.20;;
78618;SDS011;67941;52.506;5.470;2023-11-22T01:14:07;0.68;;;0.20;;
78618;SDS011;67941;52.506;5.470;2023-11-22T01:16:36;0.45;;;0.10;;
78618;SDS011;67941;52.506;5.470;2023-11-22T01:19:08;0.45;;;0.13;;
78618;SDS011;67941;52.506;5.470;2023-11-22T01:21:37;0.30;;;0.10;;
78618;SDS011;67941;52.506;5.470;2023-11-22T01:24:06;0.73;;;0.22;;
78618;SDS011;67941;52.506;5.470;2023-11-22T01:26:35;0.90;;;0.20;;
78618;SDS011;67941;52.506;5.470;2023-11-22T01:29:04;1.00;;;0.30;;
78618;SDS011;67941;52.506;5.470;2023-11-22T01:31:33;0.30;;;0.13;;
78618;SDS011;67941;52.506;5.470;2023-11-22T01:34:02;0.52;;;0.20;;
78618;SDS011;67941;52.506;5.470;2023-11-22T01:36:33;0.50;;;0.10;;
78618;SDS011;67941;52.506;5.470;2023-11-22T01:39:02;0.40;;;0.40;;
78618;SDS011;67941;52.506;5.470;2023-11-22T01:41:31;0.40;;;0.10;;
78618;SDS011;67941;52.506;5.470;2023-11-22T01:44:00;0.10;;;0.10;;
78618;SDS011;67941;52.506;5.470;2023-11-22T01:46:29;0.20;;;0.10;;
78618;SDS011;67941;52.506;5.470;2023-11-22T01:49:00;0.28;;;0.10;;
78618;SDS011;67941;52.506;5.470;2023-11-22T01:51:29;0.70;;;0.20;;
78618;SDS011;67941;52.506;5.470;2023-11-22T01:54:01;0.40;;;0.17;;
78618;SDS011;67941;52.506;5.470;2023-11-22T01:56:30;0.73;;;0.17;;
78618;SDS011;67941;52.506;5.470;2023-11-22T01:58:59;0.17;;;0.10;;
78618;SDS011;67941;52.506;5.470;2023-11-22T02:01:28;1.50;;;0.22;;
78618;SDS011;67941;52.506;5.470;2023-11-22T02:03:57;0.28;;;0.20;;
78618;SDS011;67941;52.506;5.470;2023-11-22T02:06:27;0.10;;;0.03;;
78618;SDS011;67941;52.506;5.470;2023-11-22T02:09:00;0.63;;;0.30;;
78618;SDS011;67941;52.506;5.470;2023-11-22T02:11:29;1.23;;;0.13;;
78618;SDS011;67941;52.506;5.470;2023-11-22T02:13:58;0.32;;;0.15;;
78618;SDS011;67941;52.506;5.470;2023-11-22T02:16:27;0.40;;;0.10;;
78618;SDS011;67941;52.506;5.470;2023-11-22T02:18:56;0.03;;;0.00;;
78618;SDS011;67941;52.506;5.470;2023-11-22T02:21:25;0.63;;;0.30;;
78618;SDS011;67941;52.506;5.470;2023-11-22T02:23:56;0.40;;;0.10;;
78618;SDS011;67941;52.506;5.470;2023-11-22T02:26:25;0.60;;;0.20;;
78618;SDS011;67941;52.506;5.470;2023-11-22T02:28:56;0.30;;;0.20;;
78618;SDS011;67941;52.506;5.470;2023-11-22T02:31:25;0.73;;;0.20;;
78618;SDS011;67941;52.506;5.470;2023-11-22T02:33:54;0.50;;;0.20;;
78618;SDS011;67941;52.506;5.470;2023-11-22T02:36:23;0.82;;;0.10;;
78618;SDS011;67941;52.506;5.470;2023-11-22T02:38:52;0.50;;;0.45;;
78618;SDS011;67941;52.506;5.470;2023-11-22T02:44:07;0.35;;;0.20;;
78618;SDS011;67941;52.506;5.470;2023-11-22T02:46:41;0.30;;;0.10;;
78618;SDS011;67941;52.506;5.470;2023-11-22T02:49:09;0.17;;;0.13;;
78618;SDS011;67941;52.506;5.470;2023-11-22T02:51:38;0.10;;;0.10;;
78618;SDS011;67941;52.506;5.470;2023-11-22T02:54:07;3.50;;;0.90;;
78618;SDS011;67941;52.506;5.470;2023-11-22T02:56:39;0.65;;;0.20;;
78618;SDS011;67941;52.506;5.470;2023-11-22T02:59:08;0.63;;;0.20;;
78618;SDS011;67941;52.506;5.470;2023-11-22T03:01:39;0.80;;;0.52;;
78618;SDS011;67941;52.506;5.470;2023-11-22T03:04:10;0.52;;;0.50;;
78618;SDS011;67941;52.506;5.470;2023-11-22T03:06:39;0.47;;;0.10;;
78618;SDS011;67941;52.506;5.470;2023-11-22T03:09:08;0.43;;;0.30;;
78618;SDS011;67941;52.506;5.470;2023-11-22T03:11:41;0.17;;;0.10;;
78618;SDS011;67941;52.506;5.470;2023-11-22T03:14:10;1.00;;;0.65;;
78618;SDS011;67941;52.506;5.470;2023-11-22T03:16:39;0.47;;;0.10;;
78618;SDS011;67941;52.506;5.470;2023-11-22T03:19:08;1.35;;;0.40;;
78618;SDS011;67941;52.506;5.470;2023-11-22T03:21:38;1.77;;;0.32;;
78618;SDS011;67941;52.506;5.470;2023-11-22T03:24:09;0.47;;;0.32;;
78618;SDS011;67941;52.506;5.470;2023-11-22T03:26:38;1.27;;;1.08;;
78618;SDS011;67941;52.506;5.470;2023-11-22T03:29:10;0.50;;;0.22;;
78618;SDS011;67941;52.506;5.470;2023-11-22T03:31:39;0.45;;;0.20;;
78618;SDS011;67941;52.506;5.470;2023-11-22T03:34:07;0.65;;;0.20;;
78618;SDS011;67941;52.506;5.470;2023-11-22T03:36:36;0.20;;;0.10;;
78618;SDS011;67941;52.506;5.470;2023-11-22T03:39:07;0.43;;;0.22;;
78618;SDS011;67941;52.506;5.470;2023-11-22T03:41:39;0.20;;;0.10;;
78618;SDS011;67941;52.506;5.470;2023-11-22T03:44:10;0.45;;;0.20;;
78618;SDS011;67941;52.506;5.470;2023-11-22T03:46:39;0.13;;;0.03;;
78618;SDS011;67941;52.506;5.470;2023-11-22T03:49:08;0.57;;;0.20;;
78618;SDS011;67941;52.506;5.470;2023-11-22T03:51:38;0.80;;;0.10;;
78618;SDS011;67941;52.506;5.470;2023-11-22T03:54:09;0.30;;;0.10;;
78618;SDS011;67941;52.506;5.470;2023-11-22T03:56:38;0.40;;;0.30;;
78618;SDS011;67941;52.506;5.470;2023-11-22T03:59:07;0.22;;;0.10;;
78618;SDS011;67941;52.506;5.470;2023-11-22T04:01:38;0.52;;;0.30;;
78618;SDS011;67941;52.506;5.470;2023-11-22T04:04:07;0.10;;;0.10;;
78618;SDS011;67941;52.506;5.470;2023-11-22T04:06:36;0.38;;;0.10;;
78618;SDS011;67941;52.506;5.470;2023-11-22T04:09:05;0.10;;;0.10;;
78618;SDS011;67941;52.506;5.470;2023-11-22T04:11:35;0.47;;;0.10;;
78618;SDS011;67941;52.506;5.470;2023-11-22T04:14:03;0.40;;;0.22;;
78618;SDS011;67941;52.506;5.470;2023-11-22T04:16:35;0.60;;;0.20;;
78618;SDS011;67941;52.506;5.470;2023-11-22T04:19:04;0.30;;;0.10;;
78618;SDS011;67941;52.506;5.470;2023-11-22T04:21:33;0.82;;;0.25;;
78618;SDS011;67941;52.506;5.470;2023-11-22T04:24:02;0.50;;;0.20;;
78618;SDS011;67941;52.506;5.470;2023-11-22T04:26:31;0.20;;;0.10;;
78618;SDS011;67941;52.506;5.470;2023-11-22T04:29:00;0.28;;;0.13;;
78618;SDS011;67941;52.506;5.470;2023-11-22T04:31:29;0.08;;;0.08;;
78618;SDS011;67941;52.506;5.470;2023-11-22T04:34:01;0.52;;;0.10;;
78618;SDS011;67941;52.506;5.470;2023-11-22T04:36:29;0.55;;;0.20;;
78618;SDS011;67941;52.506;5.470;2023-11-22T04:38:58;0.32;;;0.10;;
78618;SDS011;67941;52.506;5.470;2023-11-22T04:41:28;0.30;;;0.20;;
78618;SDS011;67941;52.506;5.470;2023-11-22T04:43:57;0.60;;;0.30;;
78618;SDS011;67941;52.506;5.470;2023-11-22T04:46:27;0.32;;;0.10;;
78618;SDS011;67941;52.506;5.470;2023-11-22T04:48:56;0.30;;;0.20;;
78618;SDS011;67941;52.506;5.470;2023-11-22T04:51:27;0.68;;;0.68;;
78618;SDS011;67941;52.506;5.470;2023-11-22T04:53:57;0.63;;;0.30;;
78618;SDS011;67941;52.506;5.470;2023-11-22T04:56:26;0.68;;;0.20;;
78618;SDS011;67941;52.506;5.470;2023-11-22T04:58:55;0.30;;;0.10;;
78618;SDS011;67941;52.506;5.470;2023-11-22T05:01:24;0.30;;;0.15;;
78618;SDS011;67941;52.506;5.470;2023-11-22T05:06:46;0.10;;;0.10;;
78618;SDS011;67941;52.506;5.470;2023-11-22T05:09:15;0.20;;;0.10;;
78618;SDS011;67941;52.506;5.470;2023-11-22T05:11:45;0.32;;;0.20;;
78618;SDS011;67941;52.506;5.470;2023-11-22T05:14:14;0.25;;;0.10;;
78618;SDS011;67941;52.506;5.470;2023-11-22T05:16:43;0.25;;;0.10;;
78618;SDS011;67941;52.506;5.470;2023-11-22T05:19:12;0.30;;;0.30;;
78618;SDS011;67941;52.506;5.470;2023-11-22T05:21:40;0.20;;;0.17;;
78618;SDS011;67941;52.506;5.470;2023-11-22T05:26:56;0.20;;;0.10;;
78618;SDS011;67941;52.506;5.470;2023-11-22T05:29:24;0.35;;;0.15;;
78618;SDS011;67941;52.506;5.470;2023-11-22T05:31:53;0.32;;;0.10;;
78618;SDS011;67941;52.506;5.470;2023-11-22T05:34:22;0.63;;;0.25;;
78618;SDS011;67941;52.506;5.470;2023-11-22T05:36:51;1.38;;;0.25;;
78618;SDS011;67941;52.506;5.470;2023-11-22T05:39:20;0.43;;;0.20;;
78618;SDS011;67941;52.506;5.470;2023-11-22T05:41:53;0.22;;;0.20;;
78618;SDS011;67941;52.506;5.470;2023-11-22T05:44:22;0.10;;;0.10;;
78618;SDS011;67941;52.506;5.470;2023-11-22T05:46:50;0.70;;;0.10;;
78618;SDS011;67941;52.506;5.470;2023-11-22T05:49:19;0.10;;;0.05;;
78618;SDS011;67941;52.506;5.470;2023-11-22T05:51:48;0.20;;;0.20;;
78618;SDS011;67941;52.506;5.470;2023-11-22T05:54:17;1.63;;;0.40;;
78618;SDS011;67941;52.506;5.470;2023-11-22T05:56:46;0.57;;;0.22;;
78618;SDS011;67941;52.506;5.470;2023-11-22T05:59:17;2.95;;;0.32;;
78618;SDS011;67941;52.506;5.470;2023-11-22T06:01:46;0.22;;;0.10;;
78618;SDS011;67941;52.506;5.470;2023-11-22T06:04:15;0.40;;;0.30;;
78618;SDS011;67941;52.506;5.470;2023-11-22T06:06:44;0.52;;;0.10;;
78618;SDS011;67941;52.506;5.470;2023-11-22T06:09:13;1.60;;;0.30;;
78618;SDS011;67941;52.506;5.470;2023-11-22T06:11:42;1.42;;;0.10;;
78618;SDS011;67941;52.506;5.470;2023-11-22T06:14:11;1.38;;;0.40;;
78618;SDS011;67941;52.506;5.470;2023-11-22T06:16:42;2.08;;;0.75;;
78618;SDS011;67941;52.506;5.470;2023-11-22T06:19:11;0.68;;;0.40;;
78618;SDS011;67941;52.506;5.470;2023-11-22T06:21:40;0.93;;;0.30;;
78618;SDS011;67941;52.506;5.470;2023-11-22T06:24:09;1.48;;;0.40;;
78618;SDS011;67941;52.506;5.470;2023-11-22T06:26:41;0.40;;;0.22;;
78618;SDS011;67941;52.506;5.470;2023-11-22T06:29:11;0.30;;;0.15;;
78618;SDS011;67941;52.506;5.470;2023-11-22T06:31:42;0.20;;;0.20;;
78618;SDS011;67941;52.506;5.470;2023-11-22T06:34:11;0.35;;;0.10;;
78618;SDS011;67941;52.506;5.470;2023-11-22T06:36:40;0.65;;;0.22;;
78618;SDS011;67941;52.506;5.470;2023-11-22T06:39:09;0.55;;;0.25;;
78618;SDS011;67941;52.506;5.470;2023-11-22T06:41:39;0.80;;;0.10;;
78618;SDS011;67941;52.506;5.470;2023-11-22T06:44:27;0.63;;;0.20;;
78618;SDS011;67941;52.506;5.470;2023-11-22T06:46:59;1.98;;;0.55;;
78618;SDS011;67941;52.506;5.470;2023-11-22T06:49:28;0.38;;;0.22;;
78618;SDS011;67941;52.506;5.470;2023-11-22T06:51:56;0.60;;;0.10;;
78618;SDS011;67941;52.506;5.470;2023-11-22T06:54:25;0.60;;;0.25;;
78618;SDS011;67941;52.506;5.470;2023-11-22T06:56:54;0.40;;;0.20;;
78618;SDS011;67941;52.506;5.470;2023-11-22T06:59:23;0.25;;;0.10;;
78618;SDS011;67941;52.506;5.470;2023-11-22T07:01:52;0.73;;;0.30;;
78618;SDS011;67941;52.506;5.470;2023-11-22T07:04:23;0.57;;;0.25;;
78618;SDS011;67941;52.506;5.470;2023-11-22T07:06:53;0.30;;;0.10;;
78618;SDS011;67941;52.506;5.470;2023-11-22T07:09:22;0.47;;;0.17;;
78618;SDS011;67941;52.506;5.470;2023-11-22T07:11:51;0.85;;;0.20;;
78618;SDS011;67941;52.506;5.470;2023-11-22T07:14:22;0.73;;;0.28;;
78618;SDS011;67941;52.506;5.470;2023-11-22T07:16:51;0.57;;;0.20;;
78618;SDS011;67941;52.506;5.470;2023-11-22T07:19:25;0.10;;;0.08;;
78618;SDS011;67941;52.506;5.470;2023-11-22T07:21:53;0.85;;;0.20;;
78618;SDS011;67941;52.506;5.470;2023-11-22T07:24:23;0.40;;;0.10;;
78618;SDS011;67941;52.506;5.470;2023-11-22T07:26:52;0.43;;;0.28;;
78618;SDS011;67941;52.506;5.470;2023-11-22T07:29:21;1.55;;;0.40;;
78618;SDS011;67941;52.506;5.470;2023-11-22T07:31:51;0.60;;;0.10;;
78618;SDS011;67941;52.506;5.470;2023-11-22T07:34:21;0.60;;;0.20;;
78618;SDS011;67941;52.506;5.470;2023-11-22T07:36:53;1.45;;;0.40;;
78618;SDS011;67941;52.506;5.470;2023-11-22T07:39:22;0.95;;;0.25;;
78618;SDS011;67941;52.506;5.470;2023-11-22T07:41:52;0.65;;;0.20;;
78618;SDS011;67941;52.506;5.470;2023-11-22T07:44:21;1.25;;;0.75;;
78618;SDS011;67941;52.506;5.470;2023-11-22T07:46:50;0.32;;;0.25;;
78618;SDS011;67941;52.506;5.470;2023-11-22T07:49:19;0.30;;;0.10;;
78618;SDS011;67941;52.506;5.470;2023-11-22T07:51:52;0.90;;;0.30;;
78618;SDS011;67941;52.506;5.470;2023-11-22T07:54:21;0.40;;;0.20;;
78618;SDS011;67941;52.506;5.470;2023-11-22T07:56:50;1.08;;;0.30;;
78618;SDS011;67941;52.506;5.470;2023-11-22T07:59:19;4.22;;;1.17;;
78618;SDS011;67941;52.506;5.470;2023-11-22T08:01:48;1.08;;;0.40;;
78618;SDS011;67941;52.506;5.470;2023-11-22T08:04:19;0.70;;;0.20;;
78618;SDS011;67941;52.506;5.470;2023-11-22T08:06:48;0.30;;;0.20;;
78618;SDS011;67941;52.506;5.470;2023-11-22T08:09:22;1.42;;;0.65;;
78618;SDS011;67941;52.506;5.470;2023-11-22T08:11:51;1.17;;;0.28;;
78618;SDS011;67941;52.506;5.470;2023-11-22T08:14:20;0.55;;;0.20;;
78618;SDS011;67941;52.506;5.470;2023-11-22T08:16:53;0.73;;;0.20;;
78618;SDS011;67941;52.506;5.470;2023-11-22T08:19:22;1.02;;;0.43;;
78618;SDS011;67941;52.506;5.470;2023-11-22T08:21:55;0.80;;;0.40;;
78618;SDS011;67941;52.506;5.470;2023-11-22T08:24:24;0.68;;;0.13;;
78618;SDS011;67941;52.506;5.470;2023-11-22T08:26:53;0.30;;;0.15;;
78618;SDS011;67941;52.506;5.470;2023-11-22T08:29:23;0.98;;;0.30;;
78618;SDS011;67941;52.506;5.470;2023-11-22T08:31:52;2.80;;;1.80;;
78618;SDS011;67941;52.506;5.470;2023-11-22T08:34:22;0.60;;;0.15;;
78618;SDS011;67941;52.506;5.470;2023-11-22T08:36:51;1.95;;;0.50;;
78618;SDS011;67941;52.506;5.470;2023-11-22T08:39:22;2.33;;;0.73;;
78618;SDS011;67941;52.506;5.470;2023-11-22T08:41:51;0.95;;;0.28;;
78618;SDS011;67941;52.506;5.470;2023-11-22T08:44:20;1.15;;;0.52;;
78618;SDS011;67941;52.506;5.470;2023-11-22T08:46:48;1.65;;;0.40;;
78618;SDS011;67941;52.506;5.470;2023-11-22T08:49:18;3.20;;;0.55;;
78618;SDS011;67941;52.506;5.470;2023-11-22T08:51:47;3.13;;;1.02;;
78618;SDS011;67941;52.506;5.470;2023-11-22T08:54:16;2.30;;;1.20;;
78618;SDS011;67941;52.506;5.470;2023-11-22T08:56:47;3.58;;;1.08;;
78618;SDS011;67941;52.506;5.470;2023-11-22T08:59:16;2.03;;;0.40;;
78618;SDS011;67941;52.506;5.470;2023-11-22T09:01:45;3.20;;;1.25;;
78618;SDS011;67941;52.506;5.470;2023-11-22T09:04:14;1.85;;;0.70;;
78618;SDS011;67941;52.506;5.470;2023-11-22T09:06:43;1.95;;;0.70;;
78618;SDS011;67941;52.506;5.470;2023-11-22T09:09:12;3.35;;;0.85;;
78618;SDS011;67941;52.506;5.470;2023-11-22T09:11:42;4.13;;;1.35;;
78618;SDS011;67941;52.506;5.470;2023-11-22T09:14:13;3.95;;;1.27;;
78618;SDS011;67941;52.506;5.470;2023-11-22T09:16:44;1.73;;;0.47;;
78618;SDS011;67941;52.506;5.470;2023-11-22T09:19:19;2.95;;;1.15;;
78618;SDS011;67941;52.506;5.470;2023-11-22T09:21:48;2.45;;;1.33;;
78618;SDS011;67941;52.506;5.470;2023-11-22T09:24:18;3.17;;;1.10;;
78618;SDS011;67941;52.506;5.470;2023-11-22T09:26:46;1.02;;;0.20;;
78618;SDS011;67941;52.506;5.470;2023-11-22T09:29:18;1.00;;;0.50;;
78618;SDS011;67941;52.506;5.470;2023-11-22T09:31:47;1.65;;;0.40;;
78618;SDS011;67941;52.506;5.470;2023-11-22T09:34:17;2.25;;;1.15;;
78618;SDS011;67941;52.506;5.470;2023-11-22T09:36:46;1.58;;;0.57;;
78618;SDS011;67941;52.506;5.470;2023-11-22T09:39:15;1.80;;;0.55;;
78618;SDS011;67941;52.506;5.470;2023-11-22T09:41:46;0.43;;;0.15;;
78618;SDS011;67941;52.506;5.470;2023-11-22T09:44:19;6.00;;;1.63;;
78618;SDS011;67941;52.506;5.470;2023-11-22T09:46:49;0.63;;;0.25;;
78618;SDS011;67941;52.506;5.470;2023-11-22T09:49:20;2.42;;;0.57;;
78618;SDS011;67941;52.506;5.470;2023-11-22T09:51:54;1.33;;;0.40;;
78618;SDS011;67941;52.506;5.470;2023-11-22T09:54:25;3.33;;;0.60;;
78618;SDS011;67941;52.506;5.470;2023-11-22T09:56:59;1.52;;;0.43;;
78618;SDS011;67941;52.506;5.470;2023-11-22T09:59:36;2.90;;;0.77;;
78618;SDS011;67941;52.506;5.470;2023-11-22T10:02:08;1.88;;;0.60;;
78618;SDS011;67941;52.506;5.470;2023-11-22T10:04:37;2.13;;;0.60;;
78618;SDS011;67941;52.506;5.470;2023-11-22T10:07:06;3.28;;;0.93;;
78618;SDS011;67941;52.506;5.470;2023-11-22T10:09:36;1.75;;;0.63;;
78618;SDS011;67941;52.506;5.470;2023-11-22T10:12:07;5.72;;;2.03;;
78618;SDS011;67941;52.506;5.470;2023-11-22T10:14:38;3.25;;;1.10;;
78618;SDS011;67941;52.506;5.470;2023-11-22T10:17:07;3.13;;;1.05;;
78618;SDS011;67941;52.506;5.470;2023-11-22T10:19:36;1.33;;;0.30;;
78618;SDS011;67941;52.506;5.470;2023-11-22T10:22:05;1.88;;;0.52;;
78618;SDS011;67941;52.506;5.470;2023-11-22T10:24:35;1.27;;;0.88;;
78618;SDS011;67941;52.506;5.470;2023-11-22T10:27:06;1.48;;;0.52;;
78618;SDS011;67941;52.506;5.470;2023-11-22T10:29:38;2.45;;;0.85;;
78618;SDS011;67941;52.506;5.470;2023-11-22T10:32:09;1.02;;;0.30;;
78618;SDS011;67941;52.506;5.470;2023-11-22T10:34:38;2.97;;;0.93;;
78618;SDS011;67941;52.506;5.470;2023-11-22T10:37:07;2.50;;;1.02;;
78618;SDS011;67941;52.506;5.470;2023-11-22T10:39:38;1.35;;;0.50;;
78618;SDS011;67941;52.506;5.470;2023-11-22T10:42:07;2.13;;;0.82;;
78618;SDS011;67941;52.506;5.470;2023-11-22T10:44:40;3.42;;;1.25;;
78618;SDS011;67941;52.506;5.470;2023-11-22T10:47:10;3.33;;;1.08;;
78618;SDS011;67941;52.506;5.470;2023-11-22T10:49:42;2.22;;;0.80;;
78618;SDS011;67941;52.506;5.470;2023-11-22T10:52:11;3.50;;;0.63;;
78618;SDS011;67941;52.506;5.470;2023-11-22T10:54:42;2.42;;;0.90;;
78618;SDS011;67941;52.506;5.470;2023-11-22T10:57:18;6.70;;;2.10;;
78618;SDS011;67941;52.506;5.470;2023-11-22T10:59:54;6.05;;;1.38;;
78618;SDS011;67941;52.506;5.470;2023-11-22T11:02:26;5.68;;;2.50;;
78618;SDS011;67941;52.506;5.470;2023-11-22T11:04:59;2.70;;;1.05;;
78618;SDS011;67941;52.506;5.470;2023-11-22T11:07:32;3.78;;;1.17;;
78618;SDS011;67941;52.506;5.470;2023-11-22T11:10:09;5.35;;;1.35;;
78618;SDS011;67941;52.506;5.470;2023-11-22T11:12:39;4.13;;;1.33;;
78618;SDS011;67941;52.506;5.470;2023-11-22T11:15:11;4.78;;;1.80;;
78618;SDS011;67941;52.506;5.470;2023-11-22T11:17:40;2.92;;;1.13;;
78618;SDS011;67941;52.506;5.470;2023-11-22T11:20:12;4.00;;;1.23;;
78618;SDS011;67941;52.506;5.470;2023-11-22T11:22:46;3.83;;;1.55;;
78618;SDS011;67941;52.506;5.470;2023-11-22T11:25:17;4.78;;;1.75;;
78618;SDS011;67941;52.506;5.470;2023-11-22T11:27:55;3.35;;;0.70;;
78618;SDS011;67941;52.506;5.470;2023-11-22T11:33:17;6.82;;;2.22;;
78618;SDS011;67941;52.506;5.470;2023-11-22T11:35:48;1.67;;;0.52;;
78618;SDS011;67941;52.506;5.470;2023-11-22T11:38:19;5.65;;;2.08;;
78618;SDS011;67941;52.506;5.470;2023-11-22T11:40:48;5.07;;;2.25;;
78618;SDS011;67941;52.506;5.470;2023-11-22T11:43:20;3.05;;;0.85;;
78618;SDS011;67941;52.506;5.470;2023-11-22T11:46:09;1.73;;;0.55;;
78618;SDS011;67941;52.506;5.470;2023-11-22T11:48:41;2.30;;;0.77;;
78618;SDS011;67941;52.506;5.470;2023-11-22T11:51:13;3.03;;;0.60;;
78618;SDS011;67941;52.506;5.470;2023-11-22T11:53:42;4.18;;;1.40;;
78618;SDS011;67941;52.506;5.470;2023-11-22T11:56:12;2.80;;;1.00;;
78618;SDS011;67941;52.506;5.470;2023-11-22T11:58:42;7.38;;;2.40;;
78618;SDS011;67941;52.506;5.470;2023-11-22T12:01:14;3.70;;;1.13;;
78618;SDS011;67941;52.506;5.470;2023-11-22T12:03:45;6.38;;;2.30;;
78618;SDS011;67941;52.506;5.470;2023-11-22T12:06:14;4.75;;;1.50;;
78618;SDS011;67941;52.506;5.470;2023-11-22T12:08:43;2.58;;;0.70;;
78618;SDS011;67941;52.506;5.470;2023-11-22T12:11:13;2.08;;;0.95;;
78618;SDS011;67941;52.506;5.470;2023-11-22T12:13:43;1.65;;;0.65;;
78618;SDS011;67941;52.506;5.470;2023-11-22T12:16:17;3.95;;;1.10;;
78618;SDS011;67941;52.506;5.470;2023-11-22T12:18:46;4.97;;;2.40;;
78618;SDS011;67941;52.506;5.470;2023-11-22T12:21:16;3.70;;;1.30;;
78618;SDS011;67941;52.506;5.470;2023-11-22T12:23:46;4.00;;;1.92;;
78618;SDS011;67941;52.506;5.470;2023-11-22T12:26:16;4.68;;;1.80;;
78618;SDS011;67941;52.506;5.470;2023-11-22T12:28:46;7.13;;;2.33;;
78618;SDS011;67941;52.506;5.470;2023-11-22T12:31:18;2.03;;;0.80;;
78618;SDS011;67941;52.506;5.470;2023-11-22T12:33:47;5.38;;;2.03;;
78618;SDS011;67941;52.506;5.470;2023-11-22T12:36:16;2.70;;;1.08;;
78618;SDS011;67941;52.506;5.470;2023-11-22T12:38:46;3.42;;;1.63;;
78618;SDS011;67941;52.506;5.470;2023-11-22T12:41:15;4.43;;;1.50;;
78618;SDS011;67941;52.506;5.470;2023-11-22T12:43:44;4.53;;;1.73;;
78618;SDS011;67941;52.506;5.470;2023-11-22T12:49:22;2.72;;;1.15;;
78618;SDS011;67941;52.506;5.470;2023-11-22T12:51:51;4.93;;;1.52;;
78618;SDS011;67941;52.506;5.470;2023-11-22T12:54:22;6.40;;;2.50;;
78618;SDS011;67941;52.506;5.470;2023-11-22T12:56:51;3.55;;;0.90;;
78618;SDS011;67941;52.506;5.470;2023-11-22T12:59:23;4.50;;;1.25;;
78618;SDS011;67941;52.506;5.470;2023-11-22T13:01:55;4.25;;;1.45;;
78618;SDS011;67941;52.506;5.470;2023-11-22T13:04:25;4.30;;;1.25;;
78618;SDS011;67941;52.506;5.470;2023-11-22T13:06:56;3.78;;;1.15;;
78618;SDS011;67941;52.506;5.470;2023-11-22T13:09:25;5.20;;;1.92;;
78618;SDS011;67941;52.506;5.470;2023-11-22T13:11:54;5.63;;;1.73;;
78618;SDS011;67941;52.506;5.470;2023-11-22T13:14:23;6.63;;;2.53;;
78618;SDS011;67941;52.506;5.470;2023-11-22T13:17:00;5.60;;;1.95;;
78618;SDS011;67941;52.506;5.470;2023-11-22T13:19:29;4.50;;;1.42;;
78618;SDS011;67941;52.506;5.470;2023-11-22T13:21:58;4.07;;;1.75;;
78618;SDS011;67941;52.506;5.470;2023-11-22T13:24:27;5.68;;;2.03;;
78618;SDS011;67941;52.506;5.470;2023-11-22T13:26:56;3.90;;;1.67;;
78618;SDS011;67941;52.506;5.470;2023-11-22T13:29:25;5.30;;;2.20;;
78618;SDS011;67941;52.506;5.470;2023-11-22T13:31:54;3.70;;;1.80;;
78618;SDS011;67941;52.506;5.470;2023-11-22T13:34:25;5.32;;;1.60;;
78618;SDS011;67941;52.506;5.470;2023-11-22T13:36:54;3.45;;;1.38;;
78618;SDS011;67941;52.506;5.470;2023-11-22T13:39:23;3.50;;;1.00;;
78618;SDS011;67941;52.506;5.470;2023-11-22T13:41:52;1.67;;;0.60;;
78618;SDS011;67941;52.506;5.470;2023-11-22T13:44:21;3.80;;;1.30;;
78618;SDS011;67941;52.506;5.470;2023-11-22T13:46:49;5.80;;;2.10;;
78618;SDS011;67941;52.506;5.470;2023-11-22T13:49:18;3.05;;;1.13;;
78618;SDS011;67941;52.506;5.470;2023-11-22T13:51:50;3.25;;;1.00;;
78618;SDS011;67941;52.506;5.470;2023-11-22T13:54:18;4.00;;;1.45;;
78618;SDS011;67941;52.506;5.470;2023-11-22T13:56:47;4.28;;;1.13;;
78618;SDS011;67941;52.506;5.470;2023-11-22T13:59:17;4.43;;;1.70;;
78618;SDS011;67941;52.506;5.470;2023-11-22T14:01:46;3.83;;;1.58;;
78618;SDS011;67941;52.506;5.470;2023-11-22T14:04:15;2.80;;;0.90;;
78618;SDS011;67941;52.506;5.470;2023-11-22T14:06:44;5.57;;;2.55;;
78618;SDS011;67941;52.506;5.470;2023-11-22T14:09:15;4.78;;;2.55;;
78618;SDS011;67941;52.506;5.470;2023-11-22T14:11:45;6.35;;;2.65;;
78618;SDS011;67941;52.506;5.470;2023-11-22T14:14:14;6.55;;;2.50;;
78618;SDS011;67941;52.506;5.470;2023-11-22T14:16:44;5.15;;;1.67;;
78618;SDS011;67941;52.506;5.470;2023-11-22T14:19:14;3.25;;;0.95;;
78618;SDS011;67941;52.506;5.470;2023-11-22T14:21:44;4.28;;;1.20;;
78618;SDS011;67941;52.506;5.470;2023-11-22T14:24:12;4.40;;;1.33;;
78618;SDS011;67941;52.506;5.470;2023-11-22T14:26:44;3.55;;;1.20;;
78618;SDS011;67941;52.506;5.470;2023-11-22T14:29:14;4.00;;;1.50;;
78618;SDS011;67941;52.506;5.470;2023-11-22T14:31:44;3.45;;;1.75;;
78618;SDS011;67941;52.506;5.470;2023-11-22T14:34:13;4.90;;;1.77;;
78618;SDS011;67941;52.506;5.470;2023-11-22T14:36:41;3.03;;;1.15;;
78618;SDS011;67941;52.506;5.470;2023-11-22T14:39:11;5.40;;;3.28;;
78618;SDS011;67941;52.506;5.470;2023-11-22T14:41:42;3.88;;;1.15;;
78618;SDS011;67941;52.506;5.470;2023-11-22T14:44:11;6.30;;;2.65;;
78618;SDS011;67941;52.506;5.470;2023-11-22T14:46:40;3.80;;;1.15;;
78618;SDS011;67941;52.506;5.470;2023-11-22T14:49:09;2.47;;;0.93;;
78618;SDS011;67941;52.506;5.470;2023-11-22T14:51:39;4.65;;;1.73;;
78618;SDS011;67941;52.506;5.470;2023-11-22T14:54:09;3.42;;;1.00;;
78618;SDS011;67941;52.506;5.470;2023-11-22T14:56:38;6.60;;;1.58;;
78618;SDS011;67941;52.506;5.470;2023-11-22T14:59:09;5.75;;;1.92;;
78618;SDS011;67941;52.506;5.470;2023-11-22T15:01:38;3.08;;;1.13;;
78618;SDS011;67941;52.506;5.470;2023-11-22T15:04:09;4.30;;;2.38;;
78618;SDS011;67941;52.506;5.470;2023-11-22T15:06:38;3.08;;;1.20;;
78618;SDS011;67941;52.506;5.470;2023-11-22T15:09:09;4.43;;;1.80;;
78618;SDS011;67941;52.506;5.470;2023-11-22T15:11:40;4.97;;;2.17;;
78618;SDS011;67941;52.506;5.470;2023-11-22T15:14:12;2.60;;;1.25;;
78618;SDS011;67941;52.506;5.470;2023-11-22T15:16:41;4.05;;;1.70;;
78618;SDS011;67941;52.506;5.470;2023-11-22T15:19:10;6.55;;;2.47;;